MDT,Max TemperatureF,Mean TemperatureF,Min TemperatureF,Max Dew PointF,MeanDew PointF,Min DewpointF,Max Humidity, Mean Humidity, Min Humidity, Max Sea Level PressureIn, Mean Sea Level PressureIn, Min Sea Level PressureIn, Max VisibilityMiles, Mean VisibilityMiles, Min VisibilityMiles, Max Wind SpeedMPH, Mean Wind SpeedMPH, Max Gust SpeedMPH,PrecipitationIn, CloudCover, Events, WindDirDegrees
2013-4-1,41,32,24,25,23,21,93,67,49,30.21,30.17,30.15,10,10,10,10,5,,0.00,3,Rain,35
2013-4-2,53,36,19,28,24,18,93,66,35,30.17,30.10,29.96,10,10,9,16,6,20,0.00,0,Rain-Snow,131
2013-4-3,62,44,26,37,27,23,86,57,34,30.17,29.98,29.85,10,10,10,29,15,37,0.00,2,Rain,310
2013-4-4,41,32,23,32,27,21,100,83,65,30.22,30.14,29.97,10,9,0,16,6,20,1.10,5,Rain-Snow,103
2013-4-5,62,47,32,46,31,25,100,67,34,29.96,29.73,29.60,10,10,8,26,17,37,0.01,4,Rain,150
2013-4-6,50,41,32,45,38,32,100,84,62,29.82,29.76,29.67,10,10,5,16,11,22,0.54,4,Rain,323
2013-4-7,57,44,32,39,31,25,100,69,29,29.78,29.67,29.61,10,9,3,17,11,23,0.00,4,Rain,328
2013-4-8,32,21,10,32,19,7,100,90,79,30.33,30.02,29.71,10,6,0,24,17,29,34.27,6,Rain-Snow,11
2013-4-9,26,16,5,19,11,1,100,84,68,30.44,30.38,30.32,10,10,7,14,10,,0.18,5,Snow,332
2013-4-10,32,19,6,18,13,5,100,77,44,30.35,30.16,29.91,10,10,10,12,4,,0.03,2,Rain,162
2013-4-11,35,26,17,28,21,14,93,78,60,29.91,29.85,29.82,10,10,10,12,7,,0.00,5,,146
2013-4-12,35,28,21,32,27,19,100,92,75,29.94,29.91,29.86,10,10,3,20,7,23,0.00,6,Rain-Snow,325
2013-4-13,46,32,19,32,27,19,100,83,50,29.87,29.63,29.50,10,9,0,31,13,38,0.00,5,Fog-Rain,135
2013-4-14,28,26,23,27,22,19,100,94,80,29.83,29.66,29.55,7,2,0,22,17,26,17.54,7,Snow,41
2013-4-15,30,24,19,27,23,18,100,90,74,30.07,29.92,29.83,10,9,2,20,16,24,0.18,7,Rain-Snow,312
2013-4-16,28,24,21,25,21,18,100,86,64,30.31,30.19,30.04,10,9,3,13,8,,0.01,8,Rain-Snow,43
2013-4-17,30,22,14,25,21,12,100,89,69,30.30,30.26,30.21,10,8,0,15,5,18,0.00,7,Fog-Rain-Snow,344
2013-4-18,37,26,14,32,18,12,100,76,45,30.21,30.11,29.96,10,10,2,17,8,24,0.35,1,Rain-Snow,297
2013-4-19,37,32,26,28,23,18,100,74,48,30.02,29.97,29.94,10,9,2,17,11,23,0.15,6,Snow,130
2013-4-20,42,33,24,37,28,16,100,84,59,29.94,29.87,29.81,10,9,3,29,19,36,0.05,7,Rain,156
2013-4-21,39,32,26,39,27,19,100,80,48,30.25,30.09,29.84,10,9,1,25,15,32,0.23,6,Rain-Snow,338
2013-4-22,32,24,17,23,15,9,100,68,38,30.41,30.35,30.25,10,10,10,16,10,22,0.00,6,Snow,346
2013-4-23,46,32,17,25,17,12,93,56,25,30.33,30.14,29.99,10,10,10,20,10,25,0.00,1,,269
2013-4-24,41,32,23,30,23,16,100,70,36,30.08,30.03,29.98,10,9,1,30,13,41,0.39,6,Rain-Snow,313
2013-4-25,62,44,26,28,25,21,86,51,22,29.97,29.85,29.77,10,10,10,26,13,33,0.00,4,,224
2013-4-26,71,52,32,32,27,19,87,42,16,30.07,30.01,29.92,10,10,10,18,7,28,0.00,0,,233
2013-4-27,75,60,44,32,31,27,61,34,17,29.97,29.86,29.74,10,10,10,24,13,37,0.00,1,,257
2013-4-28,60,48,37,36,28,23,70,40,23,29.92,29.85,29.74,10,10,10,21,12,28,0.00,2,,334
2013-4-29,62,50,37,41,34,27,93,58,26,29.79,29.58,29.45,10,10,6,36,14,45,0.01,4,Rain,237
2013-4-30,41,32,23,32,24,18,87,67,52,30.22,29.85,29.57,10,10,4,34,21,44,0.00,6,Rain,289